createdAt,value
2019-02-26T00:01:39.306Z,5.40
2019-02-26T00:06:47.161Z,5.42
2019-02-26T00:11:47.763Z,5.26
2019-02-26T00:16:51.070Z,5.23
2019-02-26T00:21:54.480Z,5.23
2019-02-26T00:26:58.514Z,5.45
2019-02-26T00:32:02.700Z,5.54
2019-02-26T00:37:08.387Z,5.54
2019-02-26T00:42:11.265Z,5.55
2019-02-26T00:47:14.447Z,5.58
2019-02-26T00:52:18.176Z,5.49
2019-02-26T00:57:21.659Z,5.64
2019-02-26T01:02:25.091Z,5.55
2019-02-26T01:07:28.671Z,5.60
2019-02-26T01:12:35.266Z,5.62
2019-02-26T01:17:40.113Z,5.57
2019-02-26T01:22:45.356Z,5.50
2019-02-26T01:27:51.075Z,5.47
2019-02-26T01:32:53.987Z,5.39
2019-02-26T01:37:59.945Z,5.40
2019-02-26T01:43:03.204Z,5.28
2019-02-26T01:48:09.226Z,5.33
2019-02-26T01:53:14.595Z,5.26
2019-02-26T01:58:18.534Z,5.19
2019-02-26T02:03:23.002Z,5.19
2019-02-26T02:08:26.968Z,5.22
2019-02-26T02:13:30.584Z,5.35
2019-02-26T02:18:35.584Z,5.34
2019-02-26T02:23:38.703Z,5.28
2019-02-26T02:28:42.469Z,5.26
2019-02-26T02:33:45.710Z,5.28
2019-02-26T02:38:49.422Z,5.19
2019-02-26T02:43:52.813Z,5.24
2019-02-26T02:48:56.055Z,5.13
2019-02-26T02:53:59.402Z,5.15
2019-02-26T02:59:03.464Z,5.14
2019-02-26T03:04:07.575Z,5.12
2019-02-26T03:09:17.020Z,5.14
2019-02-26T03:14:19.482Z,5.17
2019-02-26T03:19:22.466Z,5.12
2019-02-26T03:24:28.422Z,5.20
2019-02-26T03:29:31.214Z,5.17
2019-02-26T03:34:34.307Z,5.17
2019-02-26T03:39:37.329Z,5.20
2019-02-26T03:44:46.171Z,5.25
2019-02-26T03:49:47.149Z,5.25
2019-02-26T03:54:50.767Z,5.34
2019-02-26T03:59:53.921Z,5.32
2019-02-26T04:04:59.920Z,5.32
2019-02-26T04:10:02.307Z,5.35
2019-02-26T04:15:07.495Z,5.38
2019-02-26T04:20:12.241Z,5.35
2019-02-26T04:25:36.016Z,5.30
2019-02-26T04:31:26.634Z,5.31
2019-02-26T04:37:17.363Z,5.32
2019-02-26T04:43:16.748Z,5.28
2019-02-26T04:48:23.690Z,5.28
2019-02-26T04:53:28.741Z,5.24
2019-02-26T04:58:34.323Z,5.18
2019-02-26T05:03:37.638Z,5.18
2019-02-26T05:08:42.788Z,5.14
2019-02-26T05:13:45.604Z,5.09
2019-02-26T05:18:49.626Z,5.09
2019-02-26T05:23:55.178Z,5.14
2019-02-26T05:28:58.562Z,5.17
2019-02-26T05:34:01.611Z,5.15
2019-02-26T05:39:07.394Z,5.14
2019-02-26T05:44:10.837Z,5.25
2019-02-26T05:49:16.419Z,5.22
2019-02-26T05:54:21.575Z,5.25
2019-02-26T05:59:23.782Z,5.31
2019-02-26T06:04:26.908Z,5.34
2019-02-26T06:09:33.002Z,5.35
2019-02-26T06:14:36.260Z,5.35
2019-02-26T06:19:48.064Z,5.35
2019-02-26T06:24:55.018Z,5.40
2019-02-26T06:29:58.180Z,5.34
2019-02-26T06:35:01.356Z,5.36
2019-02-26T06:40:07.441Z,5.40
2019-02-26T06:45:13.920Z,5.43
2019-02-26T06:50:18.884Z,5.48
2019-02-26T06:55:21.824Z,5.53
2019-02-26T07:00:27.003Z,5.58
2019-02-26T07:05:29.940Z,5.69
2019-02-26T07:10:33.684Z,5.76
2019-02-26T07:15:36.940Z,5.88
2019-02-26T07:20:46.541Z,6.01
2019-02-26T07:25:44.921Z,6.08
2019-02-26T07:30:48.119Z,6.18
2019-02-26T07:35:52.272Z,6.27
2019-02-26T07:40:56.544Z,6.38
2019-02-26T07:46:00.446Z,6.44
2019-02-26T07:51:03.608Z,6.60
2019-02-26T07:56:08.637Z,6.52
2019-02-26T08:01:11.670Z,6.37
2019-02-26T08:06:14.649Z,6.40
2019-02-26T08:11:17.725Z,6.57
2019-02-26T08:16:23.045Z,6.73
2019-02-26T08:21:27.123Z,6.78
2019-02-26T08:26:30.859Z,6.85
2019-02-26T08:31:33.905Z,6.89
2019-02-26T08:36:36.930Z,7.07
2019-02-26T08:41:40.210Z,7.18
2019-02-26T08:46:44.467Z,7.38
2019-02-26T08:51:48.392Z,7.41
2019-02-26T08:56:54.050Z,7.48
2019-02-26T09:01:57.135Z,7.48
2019-02-26T09:07:01.948Z,7.75
2019-02-26T09:12:05.112Z,7.74
2019-02-26T09:17:08.246Z,7.59
2019-02-26T09:22:14.008Z,7.76
2019-02-26T09:27:16.539Z,7.86
2019-02-26T09:32:19.516Z,7.88
2019-02-26T09:37:22.777Z,7.86
2019-02-26T09:42:27.835Z,8.16
2019-02-26T09:47:33.474Z,8.06
2019-02-26T09:52:36.422Z,7.93
2019-02-26T09:57:39.390Z,7.98
2019-02-26T10:02:43.001Z,8.08
2019-02-26T10:07:47.873Z,8.06
2019-02-26T10:12:53.412Z,8.10
2019-02-26T10:17:58.325Z,8.16
2019-02-26T10:23:03.431Z,8.45
2019-02-26T10:28:09.656Z,8.39
2019-02-26T10:33:11.379Z,8.80
2019-02-26T10:38:14.542Z,8.44
2019-02-26T10:43:17.628Z,9.02
2019-02-26T10:48:24.454Z,9.02
2019-02-26T10:53:25.994Z,8.89
2019-02-26T10:58:28.996Z,8.97
2019-02-26T11:03:35.378Z,8.93
2019-02-26T11:08:37.078Z,9.03
2019-02-26T11:13:42.282Z,9.09
2019-02-26T11:18:47.542Z,9.09
2019-02-26T11:23:50.353Z,9.26
2019-02-26T11:28:53.511Z,9.11
2019-02-26T11:33:59.916Z,9.52
2019-02-26T11:39:02.287Z,9.22
2019-02-26T11:44:09.862Z,9.54
2019-02-26T11:49:14.314Z,9.78
2019-02-26T11:54:17.696Z,10.34
2019-02-26T11:59:21.064Z,10.15
2019-02-26T12:04:25.016Z,10.16
2019-02-26T12:09:30.006Z,10.23
2019-02-26T12:14:34.692Z,9.86
2019-02-26T12:19:38.115Z,9.83
2019-02-26T12:24:41.427Z,9.89
2019-02-26T12:29:45.525Z,9.67
2019-02-26T12:34:51.465Z,9.91
2019-02-26T12:39:55.547Z,9.83
2019-02-26T12:45:01.864Z,10.17
2019-02-26T12:50:08.126Z,10.20
2019-02-26T12:55:10.959Z,10.48
2019-02-26T13:00:17.232Z,10.65
2019-02-26T13:05:22.913Z,10.55
2019-02-26T13:10:26.493Z,10.48
2019-02-26T13:15:29.556Z,10.22
2019-02-26T13:20:32.709Z,10.38
2019-02-26T13:25:35.782Z,10.62
2019-02-26T13:30:39.227Z,10.31
2019-02-26T13:35:45.596Z,10.26
2019-02-26T13:40:47.250Z,10.49
2019-02-26T13:45:50.500Z,10.39
2019-02-26T13:50:53.924Z,10.24
2019-02-26T13:55:57.138Z,10.27
2019-02-26T14:01:00.575Z,10.40
2019-02-26T14:06:03.568Z,10.28
2019-02-26T14:11:06.662Z,10.39
2019-02-26T14:16:09.776Z,10.35
2019-02-26T14:21:13.035Z,10.27
2019-02-26T14:26:16.195Z,10.35
2019-02-26T14:31:19.315Z,10.20
2019-02-26T14:36:22.398Z,10.19
2019-02-26T14:41:25.510Z,10.25
2019-02-26T14:46:28.586Z,10.30
2019-02-26T14:51:31.931Z,10.14
2019-02-26T14:56:34.959Z,10.18
2019-02-26T15:01:37.997Z,10.30
2019-02-26T15:06:40.979Z,10.28
2019-02-26T15:11:44.208Z,10.23
2019-02-26T15:16:47.184Z,10.12
2019-02-26T15:21:50.370Z,10.09
2019-02-26T15:26:53.619Z,9.98
2019-02-26T15:31:56.755Z,9.89
2019-02-26T15:37:00.170Z,9.74
2019-02-26T15:42:03.232Z,9.63
2019-02-26T15:47:06.363Z,9.53
2019-02-26T15:52:09.425Z,9.50
2019-02-26T15:57:12.430Z,9.39
2019-02-26T16:02:15.559Z,9.24
2019-02-26T16:07:18.805Z,9.19
2019-02-26T16:12:22.274Z,9.10
2019-02-26T16:17:25.396Z,9.12
2019-02-26T16:22:28.546Z,9.01
2019-02-26T16:27:37.733Z,8.79
2019-02-26T16:32:37.400Z,8.74
2019-02-26T16:37:42.266Z,8.72
2019-02-26T16:42:45.423Z,8.68
2019-02-26T16:47:49.410Z,8.51
2019-02-26T16:52:52.672Z,8.45
2019-02-26T16:57:55.736Z,8.29
2019-02-26T17:03:00.839Z,8.17
2019-02-26T17:08:04.274Z,8.04
2019-02-26T17:13:07.354Z,7.92
2019-02-26T17:18:10.469Z,7.85
2019-02-26T17:23:14.073Z,7.78
2019-02-26T17:28:17.707Z,7.72
2019-02-26T17:33:20.699Z,7.57
2019-02-26T17:38:23.677Z,7.44
2019-02-26T17:43:26.811Z,7.28
2019-02-26T17:48:31.069Z,7.03
2019-02-26T17:53:34.458Z,6.71
2019-02-26T17:58:37.454Z,6.93
2019-02-26T18:03:44.580Z,6.60
2019-02-26T18:08:45.353Z,6.69
2019-02-26T18:13:48.431Z,6.76
2019-02-26T18:18:54.506Z,6.91
2019-02-26T18:23:57.758Z,6.56
2019-02-26T18:29:00.850Z,6.89
2019-02-26T18:34:05.682Z,6.74
2019-02-26T18:39:10.440Z,6.57
2019-02-26T18:44:13.567Z,6.27
2019-02-26T18:49:16.595Z,6.01
2019-02-26T18:54:20.316Z,6.04
2019-02-26T18:59:24.149Z,6.07
2019-02-26T19:04:27.350Z,6.17
2019-02-26T19:09:30.397Z,6.07
2019-02-26T19:14:33.411Z,6.06
2019-02-26T19:19:36.415Z,5.95
2019-02-26T19:24:39.546Z,6.08
2019-02-26T19:29:42.659Z,6.13
2019-02-26T19:34:45.752Z,5.97
2019-02-26T19:39:48.768Z,6.04
2019-02-26T19:44:51.871Z,6.02
2019-02-26T19:49:54.960Z,5.88
2019-02-26T19:54:57.932Z,5.57
2019-02-26T20:00:01.169Z,5.67
2019-02-26T20:05:05.059Z,5.68
2019-02-26T20:10:09.380Z,5.55
2019-02-26T20:15:13.327Z,5.56
2019-02-26T20:20:16.848Z,5.53
2019-02-26T20:25:20.325Z,5.60
2019-02-26T20:30:23.621Z,5.56
2019-02-26T20:35:26.674Z,5.41
2019-02-26T20:40:29.692Z,5.49
2019-02-26T20:45:32.789Z,5.31
2019-02-26T20:50:35.765Z,5.25
2019-02-26T20:55:38.717Z,5.20
2019-02-26T21:00:42.450Z,5.02
2019-02-26T21:05:45.922Z,5.19
2019-02-26T21:10:48.999Z,5.08
2019-02-26T21:15:52.074Z,4.94
2019-02-26T21:20:55.170Z,5.04
2019-02-26T21:25:58.345Z,4.99
2019-02-26T21:31:01.783Z,4.97
2019-02-26T21:36:04.963Z,4.92
2019-02-26T21:41:08.313Z,4.80
2019-02-26T21:46:11.623Z,4.77
2019-02-26T21:51:14.767Z,4.71
2019-02-26T21:56:17.925Z,4.71
2019-02-26T22:01:21.107Z,4.55
2019-02-26T22:06:24.131Z,4.54
2019-02-26T22:11:27.087Z,4.42
2019-02-26T22:16:30.234Z,4.41
2019-02-26T22:21:33.175Z,4.37
2019-02-26T22:26:36.124Z,4.35
2019-02-26T22:31:39.100Z,4.40
2019-02-26T22:36:42.097Z,4.45
2019-02-26T22:41:45.077Z,4.35
2019-02-26T22:46:48.089Z,4.38
2019-02-26T22:51:51.267Z,4.35
2019-02-26T22:56:56.710Z,4.21
2019-02-26T23:01:59.269Z,4.01
2019-02-26T23:07:04.450Z,3.73
2019-02-26T23:12:08.025Z,3.69
2019-02-26T23:17:12.016Z,3.53
2019-02-26T23:22:15.314Z,3.49
2019-02-26T23:27:18.819Z,3.52
2019-02-26T23:32:23.054Z,3.46
2019-02-26T23:37:26.726Z,3.43
2019-02-26T23:42:30.752Z,3.40
2019-02-26T23:47:35.157Z,3.43
2019-02-26T23:52:38.609Z,3.16
2019-02-26T23:57:41.692Z,3.22
